createdAt,value
2019-01-10T00:11:55.912Z,1.77
2019-01-10T00:18:47.173Z,1.83
2019-01-10T00:29:21.350Z,1.88
2019-01-10T00:46:58.127Z,1.87
2019-01-10T00:51:40.474Z,1.88
2019-01-10T15:48:51.138Z,0.15
2019-01-10T15:49:52.220Z,0.28
2019-01-10T15:51:46.182Z,0.28
2019-01-10T15:52:46.223Z,0.18
2019-01-10T15:54:38.989Z,0.17
2019-01-10T15:55:38.386Z,0.15
2019-01-10T15:57:32.162Z,0.17
2019-01-10T15:58:30.559Z,0.15
2019-01-10T16:00:25.109Z,0.00
2019-01-10T16:01:24.204Z,0.07
2019-01-10T16:03:20.801Z,-0.10
2019-01-10T16:04:18.722Z,-0.03
2019-01-10T16:06:13.479Z,-0.04
2019-01-10T16:07:11.720Z,-0.01
2019-01-10T16:09:08.230Z,0.02
2019-01-10T16:10:06.486Z,-0.03
2019-01-10T16:12:00.825Z,-0.04
2019-01-10T16:12:59.753Z,0.02
2019-01-10T16:14:53.807Z,-0.05
2019-01-10T16:15:54.323Z,0.04
2019-01-10T16:17:59.678Z,-0.10
2019-01-10T16:18:59.349Z,-0.07
2019-01-10T16:20:52.521Z,-0.19
2019-01-10T16:21:52.395Z,-0.16
2019-01-10T16:23:57.045Z,-0.11
2019-01-10T16:24:57.514Z,-0.11
2019-01-10T16:26:50.497Z,-0.21
2019-01-10T16:27:50.538Z,-0.19
2019-01-10T16:29:55.925Z,-0.15
2019-01-10T16:30:54.506Z,-0.14
2019-01-10T16:32:49.125Z,-0.10
2019-01-10T16:33:48.584Z,-0.11
2019-01-10T16:35:41.185Z,-0.16
2019-01-10T16:36:40.414Z,-0.31
2019-01-10T16:37:41.486Z,-0.15
2019-01-10T16:38:41.554Z,-0.26
2019-01-10T16:39:41.420Z,-0.14
2019-01-10T16:40:41.546Z,-0.29
2019-01-10T16:41:40.096Z,-0.26
2019-01-10T16:42:41.367Z,-0.15
2019-01-10T16:43:39.520Z,-0.26
2019-01-10T16:44:40.542Z,-0.22
2019-01-10T16:45:41.143Z,-0.33
2019-01-10T16:46:39.100Z,-0.36
2019-01-10T16:47:40.713Z,-0.29
2019-01-10T16:48:38.858Z,-0.29
2019-01-10T16:49:38.774Z,-0.39
2019-01-10T16:50:38.757Z,-0.42
2019-01-10T16:51:38.697Z,-0.37
2019-01-10T16:52:38.633Z,-0.31
2019-01-10T16:53:38.580Z,-0.33
2019-01-10T16:54:38.534Z,-0.39
2019-01-10T16:55:38.593Z,-0.34
2019-01-10T16:56:38.468Z,-0.39
2019-01-10T16:57:38.426Z,-0.40
2019-01-10T16:58:38.450Z,-0.44
2019-01-10T16:59:38.367Z,-0.44
2019-01-10T17:00:38.272Z,-0.46
2019-01-10T17:01:38.216Z,-0.43
2019-01-10T17:02:38.157Z,-0.43
2019-01-10T17:03:38.122Z,-0.43
2019-01-10T17:04:38.090Z,-0.40
2019-01-10T17:05:38.044Z,-0.44
2019-01-10T17:06:37.999Z,-0.43
2019-01-10T17:07:37.934Z,-0.39
2019-01-10T17:08:37.897Z,-0.51
2019-01-10T17:09:37.848Z,-0.60
2019-01-10T17:10:37.862Z,-0.49
2019-01-10T17:11:37.841Z,-0.47
2019-01-10T17:12:37.729Z,-0.54
2019-01-10T17:13:37.660Z,-0.54
2019-01-10T17:14:37.610Z,-0.57
2019-01-10T17:15:37.585Z,-0.52
2019-01-10T17:16:37.541Z,-0.47
2019-01-10T17:17:37.777Z,-0.54
2019-01-10T17:18:37.445Z,-0.61
2019-01-10T17:19:37.392Z,-0.64
2019-01-10T17:20:37.339Z,-0.61
2019-01-10T17:21:37.270Z,-0.72
2019-01-10T17:22:37.234Z,-0.62
2019-01-10T17:23:37.194Z,-0.62
2019-01-10T17:24:37.147Z,-0.65
2019-01-10T17:25:37.181Z,-0.64
2019-01-10T17:26:37.053Z,-0.65
2019-01-10T17:27:37.027Z,-0.61
2019-01-10T17:28:36.945Z,-0.65
2019-01-10T17:29:36.944Z,-0.67
2019-01-10T17:30:36.875Z,-0.67
2019-01-10T17:31:36.889Z,-0.58
2019-01-10T17:32:36.768Z,-0.57
2019-01-10T17:33:36.716Z,-0.65
2019-01-10T17:34:36.710Z,-0.69
2019-01-10T17:35:36.619Z,-0.69
2019-01-10T17:36:36.596Z,-0.58
2019-01-10T17:37:36.554Z,-0.62
2019-01-10T17:38:36.486Z,-0.64
2019-01-10T17:39:36.447Z,-0.73
2019-01-10T17:40:36.423Z,-0.70
2019-01-10T17:41:36.345Z,-0.72
2019-01-10T17:42:36.303Z,-0.73
2019-01-10T17:43:36.244Z,-0.70
2019-01-10T17:44:36.204Z,-0.69
2019-01-10T17:45:36.154Z,-0.75
2019-01-10T17:46:36.149Z,-0.72
2019-01-10T17:47:36.116Z,-0.72
2019-01-10T17:48:36.060Z,-0.69
2019-01-10T17:49:36.025Z,-0.70
2019-01-10T17:50:35.944Z,-0.70
2019-01-10T17:51:35.885Z,-0.70
2019-01-10T17:52:35.872Z,-0.70
2019-01-10T17:53:35.798Z,-0.70
2019-01-10T17:54:35.743Z,-0.72
2019-01-10T17:55:35.718Z,-0.65
2019-01-10T17:56:35.671Z,-0.70
2019-01-10T17:57:35.617Z,-0.80
2019-01-10T17:58:35.547Z,-0.75
2019-01-10T17:59:35.541Z,-0.78
2019-01-10T18:00:35.477Z,-0.83
2019-01-10T18:01:35.425Z,-0.85
2019-01-10T18:02:35.391Z,-0.83
2019-01-10T18:03:40.072Z,-0.86
2019-01-10T18:04:35.305Z,-0.86
2019-01-10T18:05:35.235Z,-0.86
2019-01-10T18:06:35.197Z,-0.80
2019-01-10T18:07:35.151Z,-0.82
2019-01-10T18:08:35.095Z,-0.80
2019-01-10T18:09:35.031Z,-0.82
2019-01-10T18:10:35.024Z,-0.83
2019-01-10T18:11:34.974Z,-0.82
2019-01-10T18:12:34.905Z,-0.86
2019-01-10T18:13:34.887Z,-0.80
2019-01-10T18:14:34.837Z,-0.85
2019-01-10T18:15:34.848Z,-0.91
2019-01-10T18:16:34.852Z,-0.91
2019-01-10T18:17:34.740Z,-0.97
2019-01-10T18:18:34.653Z,-0.89
2019-01-10T18:19:34.573Z,-0.89
2019-01-10T18:20:35.980Z,-0.95
2019-01-10T18:21:34.565Z,-0.80
2019-01-10T18:22:34.451Z,-0.94
2019-01-10T18:23:34.408Z,-0.91
2019-01-10T18:24:34.355Z,-0.86
2019-01-10T18:25:34.382Z,-0.99
2019-01-10T18:26:34.275Z,-0.97
2019-01-10T18:27:34.253Z,-0.89
2019-01-10T18:28:34.154Z,-0.95
2019-01-10T18:29:34.119Z,-0.86
2019-01-10T18:30:34.099Z,-0.99
2019-01-10T18:31:34.077Z,-0.92
2019-01-10T18:32:33.985Z,-0.94
2019-01-10T18:33:33.941Z,-0.98
2019-01-10T18:34:33.971Z,-0.99
2019-01-10T18:35:33.907Z,-0.95
2019-01-10T18:36:33.793Z,-0.97
2019-01-10T18:37:33.862Z,-0.92
2019-01-10T18:38:33.694Z,-0.98
2019-01-10T18:39:33.646Z,-0.98
2019-01-10T18:40:33.598Z,-1.02
2019-01-10T18:41:33.551Z,-1.10
2019-01-10T18:42:33.572Z,-1.02
2019-01-10T18:43:33.466Z,-0.98
2019-01-10T18:44:33.441Z,-1.05
2019-01-10T18:45:33.404Z,-1.10
2019-01-10T18:46:33.383Z,-1.09
2019-01-10T18:47:33.269Z,-1.09
2019-01-10T18:48:39.593Z,-1.12
2019-01-10T18:49:33.248Z,-1.05
2019-01-10T18:50:33.132Z,-0.98
2019-01-10T18:51:33.103Z,-1.16
2019-01-10T18:52:33.054Z,-1.07
2019-01-10T18:53:33.018Z,-1.05
2019-01-10T18:54:32.937Z,-1.05
2019-01-10T18:55:32.917Z,-1.04
2019-01-10T18:56:32.863Z,-1.01
2019-01-10T18:57:33.245Z,-1.10
2019-01-10T18:58:32.766Z,-1.07
2019-01-10T18:59:32.730Z,-1.07
2019-01-10T19:00:32.673Z,-1.09
2019-01-10T19:01:32.654Z,-1.12
2019-01-10T19:02:32.675Z,-0.99
2019-01-10T19:03:32.555Z,-1.07
2019-01-10T19:04:32.485Z,-1.09
2019-01-10T19:05:32.449Z,-1.10
2019-01-10T19:06:32.422Z,-1.13
2019-01-10T19:07:32.369Z,-1.15
2019-01-10T19:08:32.296Z,-1.16
2019-01-10T19:09:32.259Z,-1.15
2019-01-10T19:10:32.233Z,-1.22
2019-01-10T19:11:32.163Z,-1.15
2019-01-10T19:12:32.108Z,-1.10
2019-01-10T19:13:32.062Z,-1.17
2019-01-10T19:14:32.026Z,-1.10
2019-01-10T19:15:31.990Z,-1.10
2019-01-10T19:16:31.927Z,-1.10
2019-01-10T19:17:31.885Z,-1.15
2019-01-10T19:18:31.833Z,-1.12
2019-01-10T19:19:31.787Z,-1.16
2019-01-10T19:20:31.751Z,-1.13
2019-01-10T19:21:31.692Z,-1.12
2019-01-10T19:22:31.645Z,-1.09
2019-01-10T19:23:31.614Z,-1.13
2019-01-10T19:24:31.581Z,-1.07
2019-01-10T19:25:31.536Z,-1.17
2019-01-10T19:26:33.345Z,-1.19
2019-01-10T19:27:31.413Z,-1.13
2019-01-10T19:28:31.384Z,-1.13
2019-01-10T19:29:31.321Z,-1.20
2019-01-10T19:30:31.293Z,-1.23
2019-01-10T19:31:31.245Z,-1.22
2019-01-10T19:32:31.177Z,-1.16
2019-01-10T19:33:31.165Z,-1.23
2019-01-10T19:34:31.095Z,-1.25
2019-01-10T19:35:31.056Z,-1.22
2019-01-10T19:36:31.000Z,-1.25
2019-01-10T19:37:30.998Z,-1.27
2019-01-10T19:38:30.889Z,-1.23
2019-01-10T19:39:30.884Z,-1.23
2019-01-10T19:40:30.806Z,-1.23
2019-01-10T19:41:30.765Z,-1.12
2019-01-10T19:42:30.715Z,-1.20
2019-01-10T19:43:30.664Z,-1.19
2019-01-10T19:44:30.641Z,-1.19
2019-01-10T19:45:30.601Z,-1.20
2019-01-10T19:46:30.734Z,-1.20
2019-01-10T19:47:30.488Z,-1.16
2019-01-10T19:48:30.442Z,-1.19
2019-01-10T19:49:30.390Z,-1.17
2019-01-10T19:50:30.350Z,-1.25
2019-01-10T19:51:30.285Z,-1.23
2019-01-10T19:52:30.286Z,-1.33
2019-01-10T19:53:30.183Z,-1.23
2019-01-10T19:54:30.146Z,-1.27
2019-01-10T19:55:30.101Z,-1.28
2019-01-10T19:56:30.069Z,-1.31
2019-01-10T19:57:30.021Z,-1.28
2019-01-10T19:58:29.960Z,-1.25
2019-01-10T19:59:29.911Z,-1.34
2019-01-10T20:00:29.892Z,-1.25
2019-01-10T20:01:29.816Z,-1.34
2019-01-10T20:02:29.777Z,-1.30
2019-01-10T20:03:29.727Z,-1.23
2019-01-10T20:04:29.690Z,-1.31
2019-01-10T20:05:29.659Z,-1.25
2019-01-10T20:06:29.623Z,-1.25
2019-01-10T20:07:29.560Z,-1.23
2019-01-10T20:08:29.500Z,-1.34
2019-01-10T20:09:30.068Z,-1.27
2019-01-10T20:10:29.398Z,-1.30
2019-01-10T20:11:29.391Z,-1.33
2019-01-10T20:12:29.328Z,-1.34
2019-01-10T20:13:29.290Z,-1.45
2019-01-10T20:14:29.224Z,-1.35
2019-01-10T20:15:29.189Z,-1.45
2019-01-10T20:16:29.149Z,-1.35
2019-01-10T20:17:29.071Z,-1.33
2019-01-10T20:18:29.062Z,-1.46
2019-01-10T20:19:30.843Z,-1.40
2019-01-10T20:20:28.952Z,-1.46
2019-01-10T20:21:28.885Z,-1.46
2019-01-10T20:22:28.831Z,-1.41
2019-01-10T20:23:28.837Z,-1.38
2019-01-10T20:24:28.743Z,-1.43
2019-01-10T20:25:28.701Z,-1.33
2019-01-10T20:26:28.668Z,-1.43
2019-01-10T20:27:28.604Z,-1.45
2019-01-10T20:28:28.563Z,-1.38
2019-01-10T20:29:28.555Z,-1.43
2019-01-10T20:30:28.487Z,-1.43
2019-01-10T20:31:28.411Z,-1.54
2019-01-10T20:32:28.395Z,-1.54
2019-01-10T20:33:28.350Z,-1.52
2019-01-10T20:34:28.287Z,-1.51
2019-01-10T20:35:28.230Z,-1.49
2019-01-10T20:36:28.177Z,-1.51
2019-01-10T20:37:28.133Z,-1.51
2019-01-10T20:38:28.086Z,-1.58
2019-01-10T20:39:28.053Z,-1.54
2019-01-10T20:40:28.021Z,-1.49
2019-01-10T20:41:27.973Z,-1.52
2019-01-10T20:42:27.906Z,-1.48
2019-01-10T20:43:27.850Z,-1.55
2019-01-10T20:44:27.798Z,-1.61
2019-01-10T20:45:27.765Z,-1.59
2019-01-10T20:46:27.754Z,-1.59
2019-01-10T20:47:27.687Z,-1.52
2019-01-10T20:48:27.616Z,-1.61
2019-01-10T20:49:27.592Z,-1.59
2019-01-10T20:50:27.524Z,-1.61
2019-01-10T20:51:27.508Z,-1.59
2019-01-10T20:52:27.422Z,-1.61
2019-01-10T20:53:27.433Z,-1.59
2019-01-10T20:54:27.340Z,-1.61
2019-01-10T20:55:27.285Z,-1.62
2019-01-10T20:56:27.239Z,-1.70
2019-01-10T20:57:27.201Z,-1.70
2019-01-10T20:58:27.151Z,-1.64
2019-01-10T20:59:27.122Z,-1.79
2019-01-10T21:00:27.118Z,-1.69
2019-01-10T21:01:27.019Z,-1.74
2019-01-10T21:02:27.032Z,-1.66
2019-01-10T21:03:26.968Z,-1.70
2019-01-10T21:04:27.758Z,-1.67
2019-01-10T21:05:26.829Z,-1.64
2019-01-10T21:06:26.766Z,-1.67
2019-01-10T21:07:26.728Z,-1.66
2019-01-10T21:08:26.681Z,-1.70
2019-01-10T21:09:26.656Z,-1.70
2019-01-10T21:10:26.577Z,-1.66
2019-01-10T21:11:26.555Z,-1.69
2019-01-10T21:12:26.490Z,-1.69
2019-01-10T21:13:26.452Z,-1.62
2019-01-10T21:14:26.413Z,-1.62
2019-01-10T21:15:26.386Z,-1.74
2019-01-10T21:16:26.311Z,-1.70
2019-01-10T21:17:26.272Z,-1.76
2019-01-10T21:18:28.719Z,-1.72
2019-01-10T21:19:26.168Z,-1.74
2019-01-10T21:20:26.131Z,-1.74
2019-01-10T21:21:26.079Z,-1.74
2019-01-10T21:22:26.009Z,-1.73
2019-01-10T21:23:26.001Z,-1.67
2019-01-10T21:24:25.929Z,-1.66
2019-01-10T21:25:25.910Z,-1.70
2019-01-10T21:26:25.827Z,-1.70
2019-01-10T21:27:25.800Z,-1.67
2019-01-10T21:28:25.730Z,-1.69
2019-01-10T21:29:25.689Z,-1.73
2019-01-10T21:30:25.639Z,-1.67
2019-01-10T21:31:25.609Z,-1.73
2019-01-10T21:32:25.597Z,-1.73
2019-01-10T21:33:25.498Z,-1.70
2019-01-10T21:34:25.527Z,-1.73
2019-01-10T21:35:25.418Z,-1.67
2019-01-10T21:36:25.364Z,-1.64
2019-01-10T21:37:25.345Z,-1.59
2019-01-10T21:38:25.313Z,-1.56
2019-01-10T21:39:25.271Z,-1.62
2019-01-10T21:40:25.168Z,-1.64
2019-01-10T21:41:25.173Z,-1.62
2019-01-10T21:42:25.076Z,-1.67
2019-01-10T21:43:25.113Z,-1.72
2019-01-10T21:44:24.999Z,-1.69
2019-01-10T21:45:25.031Z,-1.72
2019-01-10T21:46:24.952Z,-1.67
2019-01-10T21:47:24.876Z,-1.67
2019-01-10T21:48:24.813Z,-1.59
2019-01-10T21:49:24.744Z,-1.67
2019-01-10T21:50:24.720Z,-1.72
2019-01-10T21:51:24.674Z,-1.66
2019-01-10T21:52:24.603Z,-1.70
2019-01-10T21:53:24.556Z,-1.66
2019-01-10T21:54:24.609Z,-1.64
2019-01-10T21:55:24.470Z,-1.70
2019-01-10T21:56:24.465Z,-1.74
2019-01-10T21:57:30.325Z,-1.79
2019-01-10T21:58:24.314Z,-1.94
2019-01-10T21:59:24.273Z,-1.73
2019-01-10T22:00:24.227Z,-1.82
2019-01-10T22:01:24.183Z,-1.79
2019-01-10T22:02:24.196Z,-1.82
2019-01-10T22:03:24.247Z,-1.85
2019-01-10T22:04:24.045Z,-1.82
2019-01-10T22:05:24.013Z,-1.76
2019-01-10T22:06:24.071Z,-1.84
2019-01-10T22:07:23.925Z,-1.82
2019-01-10T22:08:23.861Z,-1.84
2019-01-10T22:09:23.799Z,-1.85
2019-01-10T22:10:23.757Z,-1.79
2019-01-10T22:11:23.707Z,-1.74
2019-01-10T22:12:23.733Z,-1.77
2019-01-10T22:13:23.630Z,-1.82
2019-01-10T22:14:23.568Z,-1.87
2019-01-10T22:15:23.543Z,-1.77
2019-01-10T22:16:23.496Z,-1.85
2019-01-10T22:17:23.546Z,-1.76
2019-01-10T22:18:23.381Z,-1.95
2019-01-10T22:19:23.333Z,-2.00
2019-01-10T22:20:23.286Z,-2.03
2019-01-10T22:21:23.270Z,-2.03
2019-01-10T22:22:23.223Z,-2.12
2019-01-10T22:23:23.156Z,-2.16
2019-01-10T22:24:23.098Z,-2.09
2019-01-10T22:25:23.036Z,-2.08
2019-01-10T22:26:23.050Z,-2.06
2019-01-10T22:27:22.937Z,-2.12
2019-01-10T22:28:22.924Z,-1.98
2019-01-10T22:29:22.868Z,-2.00
2019-01-10T22:30:22.807Z,-2.03
2019-01-10T22:31:22.807Z,-1.97
2019-01-10T22:32:22.726Z,-2.02
2019-01-10T22:33:22.737Z,-1.98
2019-01-10T22:34:22.640Z,-1.98
2019-01-10T22:35:22.563Z,-1.98
2019-01-10T22:36:22.526Z,-2.08
2019-01-10T22:37:28.794Z,-2.08
2019-01-10T22:38:22.483Z,-2.10
2019-01-10T22:39:22.459Z,-1.97
2019-01-10T22:40:22.333Z,-1.91
2019-01-10T22:41:22.278Z,-1.94
2019-01-10T22:42:22.267Z,-1.90
2019-01-10T22:43:22.217Z,-1.91
2019-01-10T22:44:22.134Z,-1.95
2019-01-10T22:45:22.092Z,-1.87
2019-01-10T22:46:22.060Z,-1.94
2019-01-10T22:47:21.987Z,-1.90
2019-01-10T22:48:21.947Z,-2.00
2019-01-10T22:49:21.919Z,-1.94
2019-01-10T22:50:21.854Z,-1.98
2019-01-10T22:51:21.822Z,-2.02
2019-01-10T22:52:21.751Z,-2.02
2019-01-10T22:53:21.735Z,-2.00
2019-01-10T22:54:21.693Z,-2.05
2019-01-10T22:55:21.630Z,-2.02
2019-01-10T22:56:21.592Z,-2.13
2019-01-10T22:57:21.535Z,-2.08
2019-01-10T22:58:21.482Z,-2.15
2019-01-10T22:59:21.444Z,-2.15
2019-01-10T23:00:21.429Z,-2.13
2019-01-10T23:01:21.339Z,-2.15
2019-01-10T23:02:21.311Z,-2.18
2019-01-10T23:03:21.250Z,-2.18
2019-01-10T23:04:21.186Z,-2.09
2019-01-10T23:05:21.201Z,-2.06
2019-01-10T23:06:21.088Z,-2.03
2019-01-10T23:07:21.042Z,-2.00
2019-01-10T23:08:21.012Z,-1.97
2019-01-10T23:09:20.977Z,-2.06
2019-01-10T23:10:20.943Z,-2.02
2019-01-10T23:11:20.854Z,-2.05
2019-01-10T23:12:20.813Z,-2.06
2019-01-10T23:13:20.773Z,-2.09
2019-01-10T23:14:20.713Z,-2.09
2019-01-10T23:15:20.664Z,-2.08
2019-01-10T23:16:20.656Z,-2.03
2019-01-10T23:17:20.601Z,-2.05
2019-01-10T23:18:20.569Z,-2.03
2019-01-10T23:19:20.481Z,-2.03
2019-01-10T23:20:20.441Z,-2.10
2019-01-10T23:21:20.407Z,-2.00
2019-01-10T23:22:20.344Z,-2.02
2019-01-10T23:23:20.290Z,-1.92
2019-01-10T23:24:26.490Z,-2.02
2019-01-10T23:25:20.219Z,-2.00
2019-01-10T23:26:20.129Z,-2.02
2019-01-10T23:27:20.126Z,-1.98
2019-01-10T23:28:20.045Z,-2.00
2019-01-10T23:29:20.064Z,-2.02
2019-01-10T23:30:19.948Z,-2.02
2019-01-10T23:31:19.895Z,-1.98
2019-01-10T23:32:19.865Z,-2.03
2019-01-10T23:33:19.846Z,-1.94
2019-01-10T23:34:19.824Z,-1.95
2019-01-10T23:35:19.710Z,-1.92
2019-01-10T23:36:19.669Z,-1.82
2019-01-10T23:37:19.637Z,-1.94
2019-01-10T23:38:19.592Z,-1.84
2019-01-10T23:39:19.515Z,-1.94
2019-01-10T23:40:19.471Z,-1.87
2019-01-10T23:41:19.430Z,-1.84
2019-01-10T23:42:19.404Z,-1.82
2019-01-10T23:43:19.324Z,-1.92
2019-01-10T23:44:19.296Z,-1.76
2019-01-10T23:45:19.227Z,-1.76
2019-01-10T23:46:19.200Z,-1.84
2019-01-10T23:47:19.195Z,-1.88
2019-01-10T23:48:19.130Z,-1.85
2019-01-10T23:49:19.088Z,-1.82
2019-01-10T23:50:19.036Z,-1.82
2019-01-10T23:51:18.948Z,-1.79
2019-01-10T23:52:18.916Z,-1.84
2019-01-10T23:53:19.010Z,-1.73
2019-01-10T23:54:18.850Z,-1.74
2019-01-10T23:55:18.793Z,-1.70
2019-01-10T23:56:18.731Z,-1.67
2019-01-10T23:57:18.683Z,-1.69
2019-01-10T23:58:18.761Z,-1.67
